La Tuque Airport


Codes: CYLQ/YLQ
Name: La Tuque Airport
City: La Tuque
Country: Canada
Elevation: 548 ft.
Wikipedia:

Photos at La Tuque Airport


   Photos courtesy of SpottingLog. You can add your own sightings and photos by signing up for a free trial today.



No photos found.

Weather at La Tuque Airport


Time (UTC)DescriptionTempratureWindCloud coverageVisibilityPressureHumidity
19-Apr-2024 06:00Overcast Clouds6°C7 mph, SE100%10000m1020hPa89%
19-Apr-2024 09:00Overcast Clouds5°C9 mph, SE100%10000m1019hPa84%
19-Apr-2024 12:00Light Rain5°C9 mph, SE100%10000m1018hPa85%
19-Apr-2024 15:00Overcast Clouds7°C11 mph, S100%10000m1016hPa81%
19-Apr-2024 18:00Overcast Clouds7°C11 mph, SE100%10000m1013hPa82%
19-Apr-2024 21:00Light Rain8°C11 mph, SE100%10000m1009hPa86%
20-Apr-2024 00:00Light Rain9°C13 mph, S100%10000m1006hPa89%
20-Apr-2024 03:00Light Rain9°C13 mph, S100%10000m1004hPa95%
20-Apr-2024 06:00Light Rain6°C11 mph, SW87%10000m1006hPa84%
20-Apr-2024 09:00Overcast Clouds3°C11 mph, SW93%10000m1008hPa82%
20-Apr-2024 12:00Broken Clouds4°C11 mph, SW83%10000m1008hPa72%
20-Apr-2024 15:00Overcast Clouds7°C11 mph, W87%10000m1007hPa44%
20-Apr-2024 18:00Overcast Clouds8°C11 mph, W93%10000m1006hPa42%
20-Apr-2024 21:00Overcast Clouds8°C11 mph, W100%10000m1006hPa50%
21-Apr-2024 00:00Overcast Clouds4°C4 mph, W91%10000m1007hPa69%
21-Apr-2024 03:00Scattered Clouds1°C4 mph, SW40%10000m1007hPa84%
21-Apr-2024 06:00Scattered Clouds1°C4 mph, W42%10000m1007hPa86%
21-Apr-2024 09:00Overcast Clouds2°C7 mph, W100%10000m1007hPa83%
21-Apr-2024 12:00Overcast Clouds3°C9 mph, W100%10000m1008hPa66%
21-Apr-2024 15:00Overcast Clouds6°C11 mph, W90%10000m1007hPa45%
21-Apr-2024 18:00Light Rain8°C13 mph, SW95%10000m1004hPa43%
21-Apr-2024 21:00Light Rain8°C13 mph, SW100%10000m1002hPa49%
22-Apr-2024 00:00Snow3°C4 mph, W100%10000m1002hPa98%
22-Apr-2024 03:00Snow-1°C4 mph, N100%9755m1004hPa94%
22-Apr-2024 06:00Light Snow-3°C13 mph, NW99%528m1007hPa90%
22-Apr-2024 09:00Broken Clouds-8°C11 mph, NW77%10000m1012hPa79%
22-Apr-2024 12:00Scattered Clouds-8°C13 mph, NW46%10000m1015hPa53%
22-Apr-2024 15:00Overcast Clouds-4°C13 mph, NW100%10000m1016hPa34%
22-Apr-2024 18:00Overcast Clouds-1°C13 mph, NW100%10000m1016hPa28%
22-Apr-2024 21:00Overcast Clouds0°C11 mph, NW100%10000m1016hPa27%
23-Apr-2024 00:00Overcast Clouds-4°C4 mph, N100%10000m1018hPa49%
23-Apr-2024 03:00Scattered Clouds-7°C2 mph, NE39%10000m1019hPa60%
23-Apr-2024 06:00Few Clouds-7°C2 mph, SE17%10000m1020hPa65%
23-Apr-2024 09:00Few Clouds-7°C2 mph, E23%10000m1019hPa62%
23-Apr-2024 12:00Broken Clouds-2°C4 mph, SE61%10000m1018hPa43%
23-Apr-2024 15:00Overcast Clouds3°C9 mph, S100%10000m1017hPa46%
23-Apr-2024 18:00Light Snow3°C9 mph, N100%0m1014hPa93%
23-Apr-2024 21:00Snow2°C4 mph, SE100%20m1012hPa99%
24-Apr-2024 00:00Moderate Rain2°C4 mph, SE100%376m1010hPa99%
24-Apr-2024 03:00Moderate Rain2°C2 mph, NW100%273m1008hPa100%